Time;durP1;ratioP1;P1;durP2;ratioP2;P2;SDS_P1;SDS_P2;PMS_P1;PMS_P2;Temp;Humidity;BMP_temperature;BMP_pressure;BME280_temperature;BME280_humidity;BME280_pressure;Samples;Min_cycle;Max_cycle;Signal;HPM_P1;HPM_P2
2023/12/03 00:01:54;;;;;;;29.10;22.17;;;0.60;99.90;;;;;;5048871;28;20225;-64
2023/12/03 00:04:22;;;;;;;26.90;21.03;;;0.60;99.90;;;;;;5044142;28;20569;-64
2023/12/03 00:06:49;;;;;;;31.00;22.87;;;0.60;99.90;;;;;;5051615;28;20250;-64
2023/12/03 00:09:17;;;;;;;29.83;22.07;;;0.60;99.90;;;;;;5039591;28;20686;-64
2023/12/03 00:11:44;;;;;;;25.63;22.50;;;0.60;99.90;;;;;;5065743;28;20227;-64
2023/12/03 00:14:11;;;;;;;34.70;24.60;;;0.60;99.90;;;;;;5087525;28;20198;-64
2023/12/03 00:16:37;;;;;;;28.70;22.47;;;0.60;99.90;;;;;;5074880;28;20663;-64
2023/12/03 00:19:04;;;;;;;28.13;21.87;;;0.60;99.90;;;;;;5075920;28;20195;-64
2023/12/03 00:21:31;;;;;;;27.97;21.57;;;0.70;99.90;;;;;;5070555;28;20279;-65
2023/12/03 00:23:58;;;;;;;25.43;20.83;;;0.60;99.90;;;;;;5056948;28;20266;-65
2023/12/03 00:26:25;;;;;;;34.20;21.63;;;0.60;99.90;;;;;;5064867;28;20200;-64
2023/12/03 00:28:52;;;;;;;30.57;22.40;;;0.70;99.90;;;;;;5044619;28;20249;-64
2023/12/03 00:31:20;;;;;;;30.17;23.07;;;0.80;99.90;;;;;;5053384;28;20249;-64
2023/12/03 00:33:47;;;;;;;26.50;21.03;;;0.70;99.90;;;;;;5064832;28;20595;-64
2023/12/03 00:36:14;;;;;;;25.60;21.60;;;0.80;99.90;;;;;;5065051;28;20195;-64
2023/12/03 00:38:41;;;;;;;31.47;22.70;;;0.80;99.90;;;;;;5049889;28;20191;-63
2023/12/03 00:41:08;;;;;;;39.17;24.13;;;0.80;99.90;;;;;;5068306;28;20226;-63
2023/12/03 00:43:35;;;;;;;32.43;22.83;;;0.80;99.90;;;;;;5069110;28;20617;-64
2023/12/03 00:46:02;;;;;;;40.83;28.40;;;0.90;99.90;;;;;;5029632;28;20203;-67
2023/12/03 00:48:29;;;;;;;41.50;26.60;;;0.80;99.90;;;;;;5024457;28;20198;-68
2023/12/03 00:50:56;;;;;;;48.37;30.10;;;0.80;99.90;;;;;;5065046;28;20275;-70
2023/12/03 00:53:23;;;;;;;55.83;32.43;;;0.80;99.90;;;;;;5026643;28;22328;-70
2023/12/03 00:55:52;;;;;;;30.37;23.17;;;0.90;99.90;;;;;;5049840;28;20964;-68
2023/12/03 00:58:19;;;;;;;32.03;24.23;;;0.90;99.90;;;;;;5067447;28;20372;-68
2023/12/03 01:00:46;;;;;;;31.10;24.13;;;0.90;99.90;;;;;;5073297;28;20216;-68
2023/12/03 01:03:13;;;;;;;31.80;22.70;;;0.80;99.90;;;;;;5075254;28;20191;-68
2023/12/03 01:05:40;;;;;;;34.80;23.53;;;0.80;99.90;;;;;;5069018;28;20661;-69
2023/12/03 01:08:07;;;;;;;25.53;20.87;;;0.80;99.90;;;;;;5061169;28;20230;-69
2023/12/03 01:10:34;;;;;;;29.57;22.13;;;0.80;99.90;;;;;;5081145;28;20226;-69
2023/12/03 01:13:01;;;;;;;32.33;22.23;;;0.80;99.90;;;;;;5065571;28;20477;-69
2023/12/03 01:15:28;;;;;;;25.87;21.30;;;0.70;99.90;;;;;;5064781;28;20195;-68
2023/12/03 01:17:55;;;;;;;31.13;23.57;;;0.70;99.90;;;;;;5057762;28;20329;-69
2023/12/03 01:20:22;;;;;;;34.23;24.97;;;0.70;99.90;;;;;;5087051;28;20255;-66
2023/12/03 01:22:49;;;;;;;25.77;19.90;;;0.80;99.90;;;;;;5078245;28;20205;-67
2023/12/03 01:25:16;;;;;;;23.93;20.90;;;0.80;99.90;;;;;;5068544;28;20613;-68
2023/12/03 01:27:43;;;;;;;29.63;23.53;;;0.80;99.90;;;;;;5054044;28;20191;-67
2023/12/03 01:30:10;;;;;;;28.50;24.00;;;0.70;99.90;;;;;;5079956;28;20210;-68
2023/12/03 01:32:37;;;;;;;27.07;20.33;;;0.80;99.90;;;;;;5080036;28;20217;-68
2023/12/03 01:35:04;;;;;;;26.60;21.30;;;0.70;99.90;;;;;;5078380;28;20628;-63
2023/12/03 01:37:32;;;;;;;29.73;23.73;;;0.80;99.90;;;;;;5066885;28;20309;-64
2023/12/03 01:39:59;;;;;;;29.17;22.23;;;0.70;99.90;;;;;;5081244;28;20195;-62
2023/12/03 01:42:26;;;;;;;25.90;21.43;;;0.80;99.90;;;;;;5064351;28;20335;-62
2023/12/03 01:44:54;;;;;;;27.20;21.33;;;0.80;99.90;;;;;;5065874;28;20187;-64
2023/12/03 01:47:21;;;;;;;25.30;19.93;;;0.80;99.90;;;;;;5053892;28;20198;-64
2023/12/03 01:49:49;;;;;;;26.53;20.80;;;0.80;99.90;;;;;;5061656;28;20209;-63
2023/12/03 01:52:16;;;;;;;25.13;19.70;;;0.80;99.90;;;;;;5068967;28;20587;-64
2023/12/03 01:54:44;;;;;;;21.87;19.53;;;0.90;99.90;;;;;;5051368;28;20562;-64
2023/12/03 01:57:12;;;;;;;27.83;21.33;;;0.80;99.90;;;;;;5055892;28;20238;-66
2023/12/03 01:59:39;;;;;;;24.47;20.80;;;0.80;99.90;;;;;;5056308;28;20198;-67
2023/12/03 02:02:06;;;;;;;26.17;22.23;;;0.80;99.90;;;;;;5057520;28;20191;-67
2023/12/03 02:04:33;;;;;;;33.07;23.23;;;0.80;99.90;;;;;;5064520;28;20191;-67
2023/12/03 02:07:00;;;;;;;30.53;21.77;;;0.80;99.90;;;;;;5073827;28;20206;-67
2023/12/03 02:09:28;;;;;;;29.27;20.87;;;0.70;99.90;;;;;;5037837;28;20206;-67
2023/12/03 02:11:55;;;;;;;27.77;20.70;;;0.70;99.90;;;;;;5068172;28;20227;-67
2023/12/03 02:14:22;;;;;;;27.47;21.27;;;0.70;99.90;;;;;;5069187;28;20578;-67
2023/12/03 02:16:49;;;;;;;27.97;20.93;;;0.70;99.90;;;;;;5031021;28;20219;-68
2023/12/03 02:19:16;;;;;;;25.97;21.70;;;0.80;99.90;;;;;;5067557;28;20187;-68
2023/12/03 02:21:43;;;;;;;24.43;20.73;;;0.80;99.90;;;;;;5051914;28;20195;-68
2023/12/03 02:24:10;;;;;;;25.17;19.87;;;0.80;99.90;;;;;;5067047;28;20540;-69
2023/12/03 02:26:37;;;;;;;24.70;20.50;;;0.80;99.90;;;;;;5074127;28;20190;-67
2023/12/03 02:29:04;;;;;;;25.33;20.83;;;0.80;99.90;;;;;;5071369;28;20242;-68
2023/12/03 02:31:31;;;;;;;24.70;19.47;;;0.90;99.90;;;;;;5047867;28;20203;-67
2023/12/03 02:34:06;;;;;;;24.60;20.37;;;0.90;99.90;;;;;;5066857;28;20716;-67
2023/12/03 02:36:33;;;;;;;23.13;19.13;;;0.90;99.90;;;;;;5046042;28;20753;-67
2023/12/03 02:39:00;;;;;;;23.47;20.93;;;0.90;99.90;;;;;;5056137;28;20669;-67
2023/12/03 02:41:27;;;;;;;22.90;20.60;;;0.90;99.90;;;;;;5051296;28;20256;-67
2023/12/03 02:43:54;;;;;;;25.33;21.40;;;0.90;99.90;;;;;;5066746;28;20555;-67
2023/12/03 02:46:21;;;;;;;22.27;19.90;;;0.90;99.90;;;;;;5073028;28;20202;-67
2023/12/03 02:48:48;;;;;;;22.13;19.73;;;0.90;99.90;;;;;;5033684;28;20255;-67
2023/12/03 02:51:16;;;;;;;22.70;19.70;;;0.90;99.90;;;;;;5052967;28;20191;-67
2023/12/03 02:53:46;;;;;;;25.30;21.63;;;0.90;99.90;;;;;;5051390;28;20209;-68
2023/12/03 02:56:13;;;;;;;24.07;21.20;;;0.90;99.90;;;;;;5059678;28;20218;-67
2023/12/03 02:58:40;;;;;;;25.83;21.30;;;0.90;99.90;;;;;;5076459;28;20284;-67
2023/12/03 03:05:08;;;;;;;23.07;20.47;;;0.90;99.90;;;;;;5063383;28;20262;-67
2023/12/03 03:07:34;;;;;;;25.33;21.03;;;0.80;99.90;;;;;;5048839;28;20300;-67
2023/12/03 03:10:01;;;;;;;26.93;21.87;;;0.80;99.90;;;;;;5068835;28;20629;-68
2023/12/03 03:12:28;;;;;;;24.00;20.83;;;0.70;99.90;;;;;;5047367;28;20235;-68
2023/12/03 03:14:55;;;;;;;22.97;20.13;;;0.70;99.90;;;;;;5027318;28;20221;-68
2023/12/03 03:17:22;;;;;;;24.53;20.50;;;0.70;99.90;;;;;;5049092;28;20306;-67
2023/12/03 03:19:49;;;;;;;27.23;21.97;;;0.70;99.90;;;;;;5047354;28;20725;-68
2023/12/03 03:22:16;;;;;;;29.47;21.43;;;0.70;99.90;;;;;;5053028;28;20183;-68
2023/12/03 03:24:43;;;;;;;30.83;20.90;;;0.80;99.90;;;;;;5039521;28;20686;-68
2023/12/03 03:27:10;;;;;;;28.33;21.70;;;0.80;99.90;;;;;;5036197;28;20242;-68
2023/12/03 03:29:38;;;;;;;23.50;20.43;;;0.80;99.90;;;;;;5063099;28;20310;-68
2023/12/03 03:32:05;;;;;;;24.40;21.00;;;0.80;99.90;;;;;;5047389;28;20190;-67
2023/12/03 03:34:32;;;;;;;25.67;20.23;;;0.90;99.90;;;;;;5029451;28;20252;-67
2023/12/03 03:36:59;;;;;;;24.33;19.50;;;0.90;99.90;;;;;;5063649;28;20674;-68
2023/12/03 03:39:28;;;;;;;32.90;22.33;;;0.90;99.90;;;;;;5032751;28;20297;-68
2023/12/03 03:41:55;;;;;;;26.87;21.97;;;0.90;99.90;;;;;;5030392;28;20212;-67
2023/12/03 03:44:23;;;;;;;27.80;20.07;;;1.00;99.90;;;;;;5062107;28;20194;-67
2023/12/03 03:46:49;;;;;;;32.47;21.60;;;1.00;99.90;;;;;;5062418;28;20290;-68
2023/12/03 03:49:16;;;;;;;25.50;20.30;;;1.00;99.90;;;;;;5057286;28;20280;-69
2023/12/03 03:51:44;;;;;;;29.50;21.53;;;1.00;99.90;;;;;;5067164;28;20195;-69
2023/12/03 03:54:11;;;;;;;30.30;21.63;;;1.00;99.90;;;;;;5062005;28;20205;-69
2023/12/03 03:56:38;;;;;;;26.83;20.20;;;1.00;99.90;;;;;;5028402;28;20257;-69
2023/12/03 03:59:04;;;;;;;28.83;22.27;;;1.00;99.90;;;;;;5057872;28;20603;-69
2023/12/03 04:01:31;;;;;;;27.03;21.23;;;1.10;99.90;;;;;;5050674;28;20187;-67
2023/12/03 04:03:58;;;;;;;27.20;20.83;;;1.10;99.90;;;;;;5070595;28;20194;-70
2023/12/03 04:06:25;;;;;;;24.50;21.17;;;1.10;99.90;;;;;;5062063;28;20207;-70
2023/12/03 04:08:52;;;;;;;28.00;21.90;;;1.10;99.90;;;;;;5045728;28;20198;-69
2023/12/03 04:11:19;;;;;;;29.57;22.53;;;1.10;99.90;;;;;;5048601;28;20254;-69
2023/12/03 04:13:46;;;;;;;27.00;21.63;;;1.10;99.90;;;;;;5062745;28;20198;-69
2023/12/03 04:16:21;;;;;;;30.97;22.57;;;1.10;99.90;;;;;;5065871;28;20234;-65
2023/12/03 04:18:48;;;;;;;32.20;22.50;;;1.10;99.90;;;;;;5032476;28;20589;-62
2023/12/03 04:21:15;;;;;;;29.50;21.83;;;1.10;99.90;;;;;;5066561;28;20245;-63
2023/12/03 04:23:42;;;;;;;29.67;20.47;;;1.10;99.90;;;;;;5045740;28;20195;-63
2023/12/03 04:26:11;;;;;;;29.70;21.77;;;1.10;99.90;;;;;;5059981;28;20671;-62
2023/12/03 04:28:40;;;;;;;29.93;22.57;;;1.10;99.90;;;;;;5058535;28;20519;-63
2023/12/03 04:31:22;;;;;;;28.50;21.23;;;1.10;99.90;;;;;;5048112;28;20202;-63
2023/12/03 04:33:50;;;;;;;30.67;21.67;;;1.10;99.90;;;;;;5047526;28;20290;-62
2023/12/03 04:36:18;;;;;;;26.43;21.10;;;1.20;99.90;;;;;;5031511;28;20195;-62
2023/12/03 04:38:45;;;;;;;34.70;24.53;;;1.20;99.90;;;;;;5066419;28;20195;-63
2023/12/03 04:41:12;;;;;;;36.73;24.17;;;1.20;99.90;;;;;;5069899;28;20199;-63
2023/12/03 04:43:39;;;;;;;33.17;22.20;;;1.20;99.90;;;;;;5050264;28;20202;-63
2023/12/03 04:46:07;;;;;;;26.80;22.83;;;1.20;99.90;;;;;;5060385;28;20198;-63
2023/12/03 04:48:34;;;;;;;31.60;21.33;;;1.20;99.90;;;;;;5063666;28;20210;-62
2023/12/03 04:51:02;;;;;;;32.00;22.80;;;1.20;99.90;;;;;;5079044;28;20248;-62
2023/12/03 04:53:29;;;;;;;30.57;22.83;;;1.30;99.90;;;;;;5077020;28;20255;-62
2023/12/03 04:55:56;;;;;;;30.13;22.60;;;1.30;99.90;;;;;;5055431;28;20791;-64
2023/12/03 04:58:24;;;;;;;32.00;24.63;;;1.20;99.90;;;;;;5058977;28;20400;-65
2023/12/03 05:00:51;;;;;;;49.57;26.03;;;1.30;99.90;;;;;;5074241;28;20201;-65
2023/12/03 05:03:18;;;;;;;31.83;23.20;;;1.30;99.90;;;;;;5067403;28;20219;-66
2023/12/03 05:05:45;;;;;;;33.87;24.20;;;1.30;99.90;;;;;;5073140;28;20310;-66
2023/12/03 05:08:12;;;;;;;35.73;23.83;;;1.30;99.90;;;;;;5064593;28;20199;-65
2023/12/03 05:10:39;;;;;;;30.03;21.97;;;1.30;99.90;;;;;;5078906;28;20663;-64
2023/12/03 05:13:06;;;;;;;31.70;23.80;;;1.30;99.90;;;;;;5062802;28;20218;-65
2023/12/03 05:15:33;;;;;;;33.70;23.73;;;1.30;99.90;;;;;;5070779;28;20195;-67
2023/12/03 05:18:00;;;;;;;36.53;22.63;;;1.30;99.90;;;;;;5060691;28;20306;-67
2023/12/03 05:20:27;;;;;;;35.90;24.00;;;1.30;99.90;;;;;;5052799;28;20280;-67
2023/12/03 05:22:54;;;;;;;31.67;22.13;;;1.30;99.90;;;;;;5069799;28;20294;-67
2023/12/03 05:25:21;;;;;;;35.10;23.27;;;1.30;99.90;;;;;;5060498;28;20585;-66
2023/12/03 05:27:48;;;;;;;32.27;22.97;;;1.30;99.90;;;;;;5067304;28;20207;-68
2023/12/03 05:30:15;;;;;;;31.57;23.33;;;1.30;99.90;;;;;;5051945;28;20202;-69
2023/12/03 05:32:43;;;;;;;36.67;24.97;;;1.40;99.90;;;;;;5053114;28;20672;-68
2023/12/03 05:35:10;;;;;;;46.53;28.90;;;1.30;99.90;;;;;;5056065;28;20673;-67
2023/12/03 05:37:38;;;;;;;42.83;29.17;;;1.40;99.90;;;;;;5067779;28;20236;-68
2023/12/03 05:40:08;;;;;;;37.30;24.93;;;1.40;99.90;;;;;;5070870;28;20203;-68
2023/12/03 05:42:35;;;;;;;31.43;23.80;;;1.40;99.90;;;;;;5035308;28;20618;-68
2023/12/03 05:45:03;;;;;;;26.20;20.50;;;1.40;99.90;;;;;;5051082;28;20195;-67
2023/12/03 05:47:31;;;;;;;33.33;23.37;;;1.40;99.90;;;;;;5071978;28;20519;-68
2023/12/03 05:50:00;;;;;;;29.90;24.60;;;1.40;99.90;;;;;;5074026;28;20671;-68
2023/12/03 05:52:27;;;;;;;37.37;23.07;;;1.40;99.90;;;;;;5069078;28;20556;-67
2023/12/03 05:54:55;;;;;;;31.37;23.30;;;1.40;99.90;;;;;;5059407;28;20224;-67
2023/12/03 05:57:22;;;;;;;30.77;22.47;;;1.40;99.90;;;;;;5065421;28;20219;-67
2023/12/03 05:59:50;;;;;;;30.23;21.17;;;1.40;99.90;;;;;;5071499;28;20248;-68
2023/12/03 06:02:17;;;;;;;37.97;24.13;;;1.40;99.90;;;;;;5051091;28;20194;-68
2023/12/03 06:04:44;;;;;;;30.23;23.17;;;1.40;99.90;;;;;;5028850;28;20203;-68
2023/12/03 06:07:11;;;;;;;30.40;22.63;;;1.40;99.90;;;;;;5051663;28;20202;-67
2023/12/03 06:09:39;;;;;;;32.87;21.87;;;1.40;99.90;;;;;;5076695;28;20647;-68
2023/12/03 06:12:06;;;;;;;38.30;24.80;;;1.40;99.90;;;;;;5074443;28;20238;-68
2023/12/03 06:14:33;;;;;;;32.77;24.10;;;1.50;99.90;;;;;;5072544;28;21683;-68
2023/12/03 06:17:00;;;;;;;28.90;22.00;;;1.50;99.90;;;;;;5052724;28;20198;-68
2023/12/03 06:19:27;;;;;;;31.07;22.37;;;1.50;99.90;;;;;;5071468;28;20206;-68
2023/12/03 06:21:54;;;;;;;30.80;21.53;;;1.40;99.90;;;;;;5053285;28;20223;-68
2023/12/03 06:24:23;;;;;;;32.10;21.50;;;1.40;99.90;;;;;;5062417;28;20204;-67
2023/12/03 06:26:50;;;;;;;29.27;22.03;;;1.50;99.90;;;;;;5077493;28;20216;-67
2023/12/03 06:29:16;;;;;;;35.27;24.07;;;1.50;99.90;;;;;;5070013;28;20666;-68
2023/12/03 06:31:43;;;;;;;31.83;22.83;;;1.50;99.90;;;;;;5068238;28;20618;-68
2023/12/03 06:34:12;;;;;;;34.33;23.20;;;1.50;99.90;;;;;;5055927;28;20179;-68
2023/12/03 06:36:39;;;;;;;33.43;26.60;;;1.50;99.90;;;;;;5063646;28;20190;-68
2023/12/03 06:39:06;;;;;;;36.27;25.73;;;1.50;99.90;;;;;;5049636;28;20211;-69
2023/12/03 06:41:33;;;;;;;33.40;22.60;;;1.50;99.90;;;;;;5070965;28;20643;-68
2023/12/03 06:44:00;;;;;;;25.50;21.00;;;1.50;99.90;;;;;;5064087;28;20550;-68
2023/12/03 06:46:27;;;;;;;29.27;22.50;;;1.50;99.90;;;;;;5049894;28;20210;-67
2023/12/03 06:48:54;;;;;;;25.93;21.33;;;1.50;99.90;;;;;;5049723;28;20230;-67
2023/12/03 06:51:21;;;;;;;26.87;20.50;;;1.50;99.90;;;;;;5061496;28;20203;-67
2023/12/03 06:53:48;;;;;;;27.87;21.03;;;1.50;99.90;;;;;;5047482;28;20259;-67
2023/12/03 06:56:15;;;;;;;23.70;20.50;;;1.50;99.90;;;;;;5066805;28;20256;-67
2023/12/03 06:58:42;;;;;;;28.37;22.00;;;1.50;99.90;;;;;;5061787;28;20242;-67
2023/12/03 07:01:12;;;;;;;27.30;20.30;;;1.50;99.90;;;;;;5043460;28;20198;-67
2023/12/03 07:03:39;;;;;;;27.70;21.27;;;1.50;99.90;;;;;;5047159;28;20187;-67
2023/12/03 07:06:06;;;;;;;28.67;21.43;;;1.60;99.90;;;;;;5050291;28;20191;-67
2023/12/03 07:08:33;;;;;;;25.30;21.00;;;1.50;99.90;;;;;;5062535;28;20202;-68
2023/12/03 07:11:00;;;;;;;24.87;19.47;;;1.50;99.90;;;;;;5038638;28;20598;-68
2023/12/03 07:13:27;;;;;;;25.07;20.63;;;1.60;99.90;;;;;;5036336;28;20262;-68
2023/12/03 07:15:54;;;;;;;25.50;20.57;;;1.60;99.90;;;;;;5049768;28;20623;-68
2023/12/03 07:18:21;;;;;;;26.77;19.53;;;1.60;99.90;;;;;;5047973;28;20202;-68
2023/12/03 07:20:48;;;;;;;23.90;19.53;;;1.50;99.90;;;;;;5043056;28;20192;-68
2023/12/03 07:23:15;;;;;;;24.87;19.13;;;1.60;99.90;;;;;;5046563;28;20925;-68
2023/12/03 07:25:42;;;;;;;25.17;20.30;;;1.60;99.90;;;;;;5044666;28;20230;-68
2023/12/03 07:28:09;;;;;;;28.50;19.80;;;1.60;99.90;;;;;;5066230;28;20201;-68
2023/12/03 07:30:36;;;;;;;26.07;19.80;;;1.60;99.90;;;;;;5061869;28;20273;-68
2023/12/03 07:33:03;;;;;;;22.47;19.23;;;1.60;99.90;;;;;;5056968;28;20191;-67
2023/12/03 07:35:30;;;;;;;23.67;19.93;;;1.60;99.90;;;;;;5062300;28;20204;-67
2023/12/03 07:37:57;;;;;;;23.63;19.33;;;1.60;99.90;;;;;;5064335;28;20918;-67
2023/12/03 07:40:24;;;;;;;24.07;20.10;;;1.60;99.90;;;;;;5058655;28;20194;-66
2023/12/03 07:42:51;;;;;;;21.83;19.63;;;1.60;99.90;;;;;;5052188;28;20339;-66
2023/12/03 07:45:18;;;;;;;24.43;19.57;;;1.60;99.90;;;;;;5043579;28;20219;-69
2023/12/03 07:47:47;;;;;;;23.87;18.47;;;1.60;99.90;;;;;;5066459;28;20199;-68
2023/12/03 07:50:14;;;;;;;24.07;19.97;;;1.60;99.90;;;;;;5067751;28;20218;-69
2023/12/03 07:52:42;;;;;;;21.33;18.90;;;1.60;99.90;;;;;;5066514;28;20226;-70
2023/12/03 07:55:09;;;;;;;22.47;19.33;;;1.60;99.90;;;;;;5067023;28;20293;-69
2023/12/03 07:57:36;;;;;;;21.20;19.07;;;1.70;99.90;;;;;;5031069;28;20324;-69
2023/12/03 08:00:05;;;;;;;19.97;17.80;;;1.70;99.90;;;;;;5068000;28;20213;-69
2023/12/03 08:02:38;;;;;;;28.63;19.57;;;1.70;99.90;;;;;;5066448;28;20508;-69
2023/12/03 08:05:06;;;;;;;23.47;19.10;;;1.70;99.90;;;;;;5050499;28;20551;-68
2023/12/03 08:07:33;;;;;;;24.23;18.70;;;1.70;99.90;;;;;;5066714;28;20195;-68
2023/12/03 08:10:00;;;;;;;25.70;19.63;;;1.70;99.90;;;;;;5046217;28;20252;-68
2023/12/03 08:12:28;;;;;;;23.70;19.33;;;1.70;99.90;;;;;;5068782;28;20733;-68
2023/12/03 08:14:55;;;;;;;25.70;19.47;;;1.70;99.90;;;;;;5063168;28;20202;-68
2023/12/03 08:17:22;;;;;;;20.87;18.67;;;1.80;99.90;;;;;;5055506;28;20993;-68
2023/12/03 08:19:49;;;;;;;24.00;18.50;;;1.80;99.90;;;;;;5051488;28;20234;-68
2023/12/03 08:22:16;;;;;;;23.43;18.80;;;1.70;99.90;;;;;;5069642;28;20248;-67
2023/12/03 08:24:43;;;;;;;19.70;17.63;;;1.80;99.90;;;;;;5050558;28;20297;-68
2023/12/03 08:27:10;;;;;;;21.50;17.97;;;1.80;99.90;;;;;;5034661;28;20214;-68
2023/12/03 08:29:38;;;;;;;19.37;17.30;;;1.90;99.90;;;;;;5046997;28;20289;-68
2023/12/03 08:32:05;;;;;;;19.60;17.50;;;1.90;99.90;;;;;;5069092;28;20248;-68
2023/12/03 08:34:32;;;;;;;19.57;17.47;;;1.80;99.90;;;;;;5067628;28;20206;-68
2023/12/03 08:36:59;;;;;;;20.47;18.33;;;1.90;99.90;;;;;;5054807;28;20211;-69
2023/12/03 08:39:26;;;;;;;22.67;18.73;;;1.90;99.90;;;;;;5062698;28;20613;-68
2023/12/03 08:41:53;;;;;;;20.23;18.07;;;1.90;99.90;;;;;;5029467;28;20681;-67
2023/12/03 08:44:20;;;;;;;20.13;18.03;;;1.90;99.90;;;;;;5051450;28;20195;-68
2023/12/03 08:46:47;;;;;;;22.07;19.33;;;1.90;99.90;;;;;;5073034;28;20225;-64
2023/12/03 08:49:14;;;;;;;21.90;18.10;;;1.90;99.90;;;;;;5071066;28;20187;-64
2023/12/03 08:51:41;;;;;;;22.83;19.30;;;1.90;99.90;;;;;;5052482;28;20717;-63
2023/12/03 08:54:08;;;;;;;25.20;21.57;;;1.90;99.90;;;;;;5058291;28;20210;-65
2023/12/03 08:56:35;;;;;;;24.80;19.83;;;1.90;99.90;;;;;;5062806;28;20749;-63
2023/12/03 08:59:02;;;;;;;22.10;17.70;;;1.90;99.90;;;;;;5081040;28;20245;-63
2023/12/03 09:01:29;;;;;;;22.47;18.13;;;2.00;99.90;;;;;;5059526;28;20198;-62
2023/12/03 09:03:56;;;;;;;19.33;17.27;;;2.00;99.90;;;;;;5079981;28;20295;-62
2023/12/03 09:06:23;;;;;;;21.87;18.17;;;2.00;99.90;;;;;;5056606;28;20199;-66
2023/12/03 09:08:50;;;;;;;20.33;18.33;;;2.00;99.90;;;;;;5059566;28;20187;-67
2023/12/03 09:11:17;;;;;;;21.63;19.30;;;2.00;99.90;;;;;;5072504;28;20299;-68
2023/12/03 09:13:44;;;;;;;20.27;18.37;;;2.00;99.90;;;;;;5081693;28;20603;-68
2023/12/03 09:16:11;;;;;;;23.13;19.63;;;2.00;99.90;;;;;;5076848;28;20248;-68
2023/12/03 09:18:38;;;;;;;22.13;19.63;;;2.10;99.90;;;;;;5060188;28;20567;-68
2023/12/03 09:21:11;;;;;;;20.73;18.63;;;2.20;99.90;;;;;;5069594;28;20592;-68
2023/12/03 09:23:38;;;;;;;19.80;17.83;;;2.30;99.90;;;;;;5087033;28;20282;-68
2023/12/03 09:26:06;;;;;;;22.47;19.53;;;2.30;99.90;;;;;;5036593;28;20334;-68
2023/12/03 09:28:34;;;;;;;20.87;18.87;;;2.30;99.90;;;;;;5045729;28;20276;-67
2023/12/03 09:31:01;;;;;;;21.00;17.77;;;2.30;99.90;;;;;;5049886;28;20219;-67
2023/12/03 09:33:28;;;;;;;21.83;17.93;;;2.40;99.90;;;;;;5073095;28;20210;-67
2023/12/03 09:35:58;;;;;;;19.80;17.90;;;2.50;99.90;;;;;;5058577;28;20210;-67
2023/12/03 09:38:24;;;;;;;18.80;17.00;;;2.50;99.90;;;;;;5073489;28;20691;-66
2023/12/03 09:40:56;;;;;;;22.20;17.80;;;2.70;99.90;;;;;;5076470;28;20203;-63
2023/12/03 09:43:27;;;;;;;20.93;18.60;;;6.80;99.90;;;;;;5079678;28;20295;-63
2023/12/03 09:45:56;;;;;;;20.87;19.03;;;10.50;99.90;;;;;;5059568;28;20222;-62
2023/12/03 09:48:29;;;;;;;21.00;19.17;;;12.30;99.90;;;;;;5070179;28;20541;-62
2023/12/03 09:50:59;;;;;;;22.93;20.80;;;13.10;99.90;;;;;;5063025;28;20202;-62
2023/12/03 09:53:27;;;;;;;22.97;20.73;;;12.60;99.90;;;;;;5060994;28;20264;-62
2023/12/03 09:55:54;;;;;;;24.43;21.90;;;13.50;99.90;;;;;;5052155;28;20187;-67
2023/12/03 09:58:21;;;;;;;23.27;21.00;;;13.30;99.90;;;;;;5034117;28;20210;-67
2023/12/03 10:00:48;;;;;;;23.23;21.10;;;12.70;99.90;;;;;;5052120;28;20241;-67
2023/12/03 10:03:15;;;;;;;23.17;21.17;;;13.30;99.90;;;;;;5041454;28;20292;-67
2023/12/03 10:05:44;;;;;;;24.67;22.27;;;12.80;99.90;;;;;;5061928;28;20198;-67
2023/12/03 10:08:12;;;;;;;24.27;21.97;;;13.40;99.90;;;;;;5059101;28;20195;-68
2023/12/03 10:10:46;;;;;;;24.65;22.23;;;15.50;99.90;;;;;;5050502;28;20670;-69
2023/12/03 10:13:13;;;;;;;24.87;22.47;;;13.80;99.90;;;;;;5043065;28;20196;-68
2023/12/03 10:15:40;;;;;;;24.80;22.30;;;9.90;99.90;;;;;;5048160;28;20651;-65
2023/12/03 10:18:08;;;;;;;25.17;22.63;;;7.70;99.90;;;;;;5071241;28;20457;-64
2023/12/03 10:20:35;;;;;;;33.10;29.43;;;6.10;99.90;;;;;;5082017;28;20190;-64
2023/12/03 10:23:03;;;;;;;24.87;22.40;;;5.30;99.90;;;;;;5075165;28;20602;-64
2023/12/03 10:25:31;;;;;;;24.03;21.77;;;6.00;99.90;;;;;;5059243;28;20221;-64
2023/12/03 10:28:01;;;;;;;25.10;22.13;;;8.80;99.90;;;;;;5048674;28;20195;-64
2023/12/03 10:30:28;;;;;;;25.07;22.57;;;9.40;99.90;;;;;;5030557;28;20200;-68
2023/12/03 10:32:56;;;;;;;23.93;21.63;;;10.60;99.90;;;;;;5060496;28;20728;-64
2023/12/03 10:35:24;;;;;;;23.60;21.50;;;8.90;99.90;;;;;;5050019;28;20203;-64
2023/12/03 10:37:51;;;;;;;25.80;23.17;;;8.20;99.90;;;;;;5066575;28;20202;-65
2023/12/03 10:40:19;;;;;;;23.60;21.63;;;7.10;99.90;;;;;;5047980;28;20199;-64
2023/12/03 10:42:46;;;;;;;24.93;21.53;;;6.70;99.90;;;;;;5048859;28;20553;-65
2023/12/03 10:45:15;;;;;;;23.80;21.67;;;9.40;99.90;;;;;;5049834;28;20581;-66
2023/12/03 10:47:43;;;;;;;25.60;23.20;;;11.40;99.90;;;;;;5047446;28;20191;-65
2023/12/03 10:50:11;;;;;;;25.33;22.93;;;11.20;99.90;;;;;;5032998;28;20245;-64
2023/12/03 10:52:40;;;;;;;26.90;24.27;;;10.90;99.90;;;;;;5066618;28;20566;-65
2023/12/03 10:55:08;;;;;;;25.80;23.40;;;10.70;99.90;;;;;;5067089;28;20195;-65
2023/12/03 10:57:56;;;;;;;24.13;22.03;;;10.50;99.90;;;;;;5044648;28;20218;-66
2023/12/03 11:00:27;;;;;;;24.07;21.87;;;10.80;99.90;;;;;;5049595;28;20888;-68
2023/12/03 11:03:08;;;;;;;24.73;22.37;;;13.20;99.90;;;;;;5066686;28;20198;-68
2023/12/03 11:05:52;;;;;;;26.57;23.73;;;12.90;99.90;;;;;;5067802;28;20194;-64
2023/12/03 11:08:24;;;;;;;26.90;24.10;;;12.30;99.90;;;;;;5031494;28;20195;-65
2023/12/03 11:10:55;;;;;;;25.80;23.23;;;10.60;99.90;;;;;;5057833;28;21043;-65
2023/12/03 11:13:22;;;;;;;58.80;37.20;;;7.60;99.90;;;;;;5054170;28;20557;-66
2023/12/03 11:16:04;;;;;;;26.53;23.87;;;7.10;99.90;;;;;;5049410;28;20194;-64
2023/12/03 11:18:34;;;;;;;25.93;23.53;;;8.10;99.90;;;;;;5055418;28;20792;-64
2023/12/03 11:21:18;;;;;;;25.23;22.87;;;9.40;99.90;;;;;;5064121;28;20234;-63
2023/12/03 11:24:16;;;;;;;26.07;23.57;;;9.90;99.90;;;;;;5050638;28;20847;-63
2023/12/03 11:26:43;;;;;;;30.33;26.77;;;9.90;99.90;;;;;;5062961;28;20323;-64
2023/12/03 11:29:10;;;;;;;27.40;24.50;;;8.80;99.90;;;;;;5049792;28;20531;-70
2023/12/03 11:31:37;;;;;;;46.60;32.40;;;9.80;99.90;;;;;;5063334;28;20199;-63
2023/12/03 11:34:05;;;;;;;28.20;25.30;;;10.80;99.90;;;;;;5030399;28;20241;-63
2023/12/03 11:36:42;;;;;;;28.50;23.90;;;8.70;99.90;;;;;;5047801;28;20195;-64
2023/12/03 11:39:10;;;;;;;28.37;25.40;;;8.20;99.90;;;;;;5052729;28;20240;-63
2023/12/03 11:41:38;;;;;;;29.80;26.47;;;7.90;99.90;;;;;;5058636;28;20628;-66
2023/12/03 11:44:21;;;;;;;28.97;26.00;;;7.70;99.90;;;;;;5057621;28;20203;-65
2023/12/03 11:47:07;;;;;;;30.10;27.00;;;9.30;99.90;;;;;;5042106;28;20272;-64
2023/12/03 11:49:38;;;;;;;25.63;23.27;;;8.80;99.90;;;;;;5060098;28;20651;-65
2023/12/03 11:52:06;;;;;;;32.77;28.73;;;8.80;99.90;;;;;;5046116;28;20309;-63
2023/12/03 11:54:38;;;;;;;30.67;27.20;;;9.20;99.90;;;;;;5065468;28;20445;-64
2023/12/03 11:57:15;;;;;;;25.77;23.33;;;9.00;99.90;;;;;;5036010;28;20567;-63
2023/12/03 11:59:43;;;;;;;31.13;26.73;;;8.70;99.90;;;;;;5052300;28;20308;-66
2023/12/03 12:02:11;;;;;;;26.00;23.40;;;6.90;99.90;;;;;;5060101;28;20203;-66
2023/12/03 12:04:38;;;;;;;25.83;23.17;;;6.70;99.90;;;;;;5048830;28;20583;-66
2023/12/03 12:07:18;;;;;;;26.97;23.57;;;5.50;99.90;;;;;;5071246;28;20542;-66
2023/12/03 12:09:46;;;;;;;26.10;22.33;;;5.30;99.90;;;;;;5053482;28;20213;-66
2023/12/03 12:12:17;;;;;;;25.00;22.30;;;5.30;99.90;;;;;;5069348;28;20895;-66
2023/12/03 12:14:45;;;;;;;24.17;21.77;;;6.00;99.90;;;;;;5066662;28;20554;-65
2023/12/03 12:17:13;;;;;;;25.30;22.83;;;6.10;99.90;;;;;;5067954;28;20566;-63
2023/12/03 12:19:50;;;;;;;23.73;21.50;;;5.40;99.90;;;;;;5052202;28;20303;-62
2023/12/03 12:22:18;;;;;;;24.23;21.93;;;5.40;99.90;;;;;;5075377;28;20855;-62
2023/12/03 12:24:47;;;;;;;24.20;21.70;;;5.70;99.90;;;;;;5064704;28;20637;-62
2023/12/03 12:27:14;;;;;;;25.03;22.60;;;5.70;99.90;;;;;;5057947;28;20286;-62
2023/12/03 12:29:42;;;;;;;24.57;22.20;;;6.10;99.90;;;;;;5045417;28;20218;-61
2023/12/03 12:32:09;;;;;;;26.03;23.50;;;5.50;99.90;;;;;;5063534;28;20259;-61
2023/12/03 12:34:36;;;;;;;26.03;23.17;;;5.30;99.90;;;;;;5068033;28;20195;-62
2023/12/03 12:37:05;;;;;;;24.10;21.73;;;5.30;99.90;;;;;;5057727;28;20631;-61
2023/12/03 12:39:33;;;;;;;22.53;20.57;;;5.80;99.90;;;;;;5060570;28;20268;-62
2023/12/03 12:42:01;;;;;;;24.73;22.27;;;6.50;99.90;;;;;;5070354;28;20191;-61
2023/12/03 12:44:39;;;;;;;27.47;22.90;;;6.60;99.90;;;;;;5070166;28;20271;-61